createdAt,value
2022-10-19T00:00:49.576Z,6.63
2022-10-19T00:05:33.124Z,7.30
2022-10-19T00:10:16.541Z,7.00
2022-10-19T00:15:01.607Z,6.37
2022-10-19T00:19:45.134Z,5.13
2022-10-19T00:24:28.829Z,5.97
2022-10-19T00:29:13.535Z,6.43
2022-10-19T00:33:59.327Z,5.63
2022-10-19T00:38:43.767Z,5.80
2022-10-19T00:43:33.632Z,5.70
2022-10-19T00:48:21.166Z,4.83
2022-10-19T00:53:06.148Z,4.07
2022-10-19T00:57:52.603Z,3.83
2022-10-19T01:02:36.860Z,3.00
2022-10-19T01:07:21.631Z,4.00
2022-10-19T01:12:18.762Z,4.40
2022-10-19T01:17:09.826Z,3.33
2022-10-19T01:22:04.703Z,4.30
2022-10-19T01:27:14.983Z,3.60
2022-10-19T01:32:05.017Z,3.57
2022-10-19T01:36:57.488Z,5.53
2022-10-19T01:41:50.414Z,4.30
2022-10-19T01:46:38.900Z,4.17
2022-10-19T01:51:27.867Z,4.80
2022-10-19T01:56:12.762Z,4.47
2022-10-19T02:00:59.598Z,5.77
2022-10-19T02:05:45.524Z,4.33
2022-10-19T02:10:32.697Z,2.77
2022-10-19T02:15:18.886Z,3.07
2022-10-19T02:20:03.059Z,2.70
2022-10-19T02:24:46.605Z,2.20
2022-10-19T02:29:31.750Z,3.90
2022-10-19T02:34:15.823Z,5.63
2022-10-19T02:38:59.512Z,4.10
2022-10-19T02:43:46.018Z,3.90
2022-10-19T02:48:34.563Z,4.33
2022-10-19T02:53:18.423Z,4.90
2022-10-19T02:58:01.928Z,4.83
2022-10-19T03:02:46.574Z,5.53
2022-10-19T03:07:31.891Z,5.07
2022-10-19T03:12:15.936Z,4.83
2022-10-19T03:16:59.363Z,5.03
2022-10-19T03:21:42.821Z,4.67
2022-10-19T03:26:28.089Z,4.20
2022-10-19T03:31:11.594Z,3.73
2022-10-19T03:36:16.590Z,3.87
2022-10-19T03:40:59.993Z,4.77
2022-10-19T03:45:47.592Z,3.80
2022-10-19T03:50:31.009Z,4.97
2022-10-19T03:55:14.555Z,7.30
2022-10-19T03:59:57.967Z,7.33
2022-10-19T04:04:42.796Z,4.53
2022-10-19T04:09:26.359Z,5.33
2022-10-19T04:18:53.734Z,7.20
2022-10-19T04:23:39.226Z,5.87
2022-10-19T04:28:22.665Z,5.13
2022-10-19T04:33:06.313Z,4.43
2022-10-19T04:37:49.790Z,3.93
2022-10-19T04:42:34.660Z,5.50
2022-10-19T04:47:18.184Z,5.30
2022-10-19T04:52:01.615Z,5.90
2022-10-19T04:56:45.061Z,4.37
2022-10-19T05:01:32.072Z,4.23
2022-10-19T05:06:17.910Z,5.50
2022-10-19T05:11:06.623Z,5.87
2022-10-19T05:15:57.613Z,5.30
2022-10-19T05:20:44.914Z,4.40
2022-10-19T05:25:28.316Z,6.17
2022-10-19T05:30:14.393Z,6.27
2022-10-19T05:34:58.046Z,5.27
2022-10-19T05:39:43.006Z,5.23
2022-10-19T05:44:26.491Z,3.40
2022-10-19T05:49:11.593Z,3.93
2022-10-19T05:53:55.555Z,4.23
2022-10-19T05:58:43.141Z,5.03
2022-10-19T06:03:38.718Z,6.07
2022-10-19T06:08:24.225Z,7.23
2022-10-19T06:13:09.582Z,7.37
2022-10-19T06:17:54.473Z,6.90
2022-10-19T06:22:37.977Z,6.80
2022-10-19T06:27:21.476Z,6.67
2022-10-19T06:32:05.254Z,5.60
2022-10-19T06:36:50.576Z,6.30
2022-10-19T06:41:34.423Z,5.90
2022-10-19T06:46:21.331Z,6.70
2022-10-19T06:51:07.717Z,6.87
2022-10-19T06:55:52.634Z,7.67
2022-10-19T07:00:36.177Z,8.03
2022-10-19T07:05:19.713Z,9.67
2022-10-19T07:10:03.262Z,9.77
2022-10-19T07:14:48.238Z,8.73
2022-10-19T07:19:34.466Z,9.87
2022-10-19T07:24:17.897Z,10.33
2022-10-19T07:29:03.035Z,8.13
2022-10-19T07:33:48.189Z,7.87
2022-10-19T07:38:33.446Z,8.00
2022-10-19T07:43:16.892Z,7.23
2022-10-19T07:48:01.619Z,6.93
2022-10-19T07:52:46.470Z,6.30
2022-10-19T07:57:29.910Z,10.47
2022-10-19T08:02:17.227Z,11.50
2022-10-19T08:07:00.936Z,11.30
2022-10-19T08:11:46.246Z,9.93
2022-10-19T08:16:32.958Z,5.80
2022-10-19T08:21:16.995Z,5.63
2022-10-19T08:26:00.536Z,5.97
2022-10-19T08:30:46.640Z,5.28
2022-10-19T08:35:31.271Z,6.72
2022-10-19T08:40:22.032Z,7.90
2022-10-19T08:45:19.087Z,6.05
2022-10-19T08:50:10.693Z,5.20
2022-10-19T08:54:56.785Z,4.85
2022-10-19T08:59:46.336Z,4.88
2022-10-19T09:04:34.084Z,5.20
2022-10-19T09:09:20.966Z,5.97
2022-10-19T09:14:12.266Z,5.40
2022-10-19T09:18:55.876Z,5.82
2022-10-19T09:23:42.976Z,5.22
2022-10-19T09:28:44.721Z,6.03
2022-10-19T09:33:34.140Z,5.70
2022-10-19T09:38:20.009Z,5.80
2022-10-19T09:43:19.532Z,5.65
2022-10-19T09:48:12.168Z,5.72
2022-10-19T09:52:57.994Z,6.10
2022-10-19T09:57:44.324Z,5.88
2022-10-19T10:02:33.252Z,5.95
2022-10-19T10:07:20.156Z,4.85
2022-10-19T10:12:08.659Z,5.00
2022-10-19T10:16:56.777Z,4.25
2022-10-19T10:21:49.891Z,4.47
2022-10-19T10:26:40.315Z,4.43
2022-10-19T10:31:27.367Z,4.18
2022-10-19T10:36:12.616Z,5.00
2022-10-19T10:40:58.458Z,4.80
2022-10-19T10:45:46.471Z,4.55
2022-10-19T10:50:35.932Z,5.38
2022-10-19T10:55:20.126Z,5.80
2022-10-19T11:00:11.455Z,5.57
2022-10-19T11:05:01.371Z,5.57
2022-10-19T11:09:48.154Z,4.72
2022-10-19T11:14:38.019Z,4.80
2022-10-19T11:19:25.980Z,5.30
2022-10-19T11:24:20.023Z,5.55
2022-10-19T11:29:20.691Z,6.00
2022-10-19T11:34:09.257Z,5.40
2022-10-19T11:39:05.553Z,5.80
2022-10-19T11:44:06.033Z,5.45
2022-10-19T11:49:08.376Z,5.88
2022-10-19T11:54:04.534Z,4.82
2022-10-19T11:58:59.743Z,5.38
2022-10-19T12:04:05.441Z,5.10
2022-10-19T12:09:08.984Z,5.30
2022-10-19T12:13:58.277Z,5.20
2022-10-19T12:18:46.235Z,5.55
2022-10-19T12:23:33.328Z,5.25
2022-10-19T12:28:23.350Z,5.38
2022-10-19T12:33:18.219Z,5.63
2022-10-19T12:38:08.170Z,5.70
2022-10-19T12:43:00.808Z,5.50
2022-10-19T12:48:19.411Z,5.20
2022-10-19T12:53:02.913Z,5.55
2022-10-19T12:57:49.175Z,5.57
2022-10-19T13:02:36.047Z,6.25
2022-10-19T13:07:21.574Z,6.47
2022-10-19T13:12:28.772Z,5.95
2022-10-19T13:17:34.097Z,6.82
2022-10-19T13:22:29.441Z,6.45
2022-10-19T13:27:27.534Z,6.65
2022-10-19T13:32:34.112Z,6.47
2022-10-19T13:37:19.932Z,6.55
2022-10-19T13:42:04.820Z,6.72
2022-10-19T13:47:19.276Z,7.28
2022-10-19T13:52:19.900Z,8.30
2022-10-19T13:57:19.261Z,6.50
2022-10-19T14:02:33.069Z,6.75
2022-10-19T14:07:21.238Z,7.10
2022-10-19T14:12:15.167Z,7.25
2022-10-19T14:17:03.194Z,6.90
2022-10-19T14:21:47.897Z,6.43
2022-10-19T14:26:32.143Z,7.38
2022-10-19T14:31:23.971Z,7.60
2022-10-19T14:36:09.015Z,7.30
2022-10-19T14:40:52.669Z,7.10
2022-10-19T14:45:36.406Z,6.93
2022-10-19T14:50:24.406Z,7.60
2022-10-19T14:55:15.306Z,8.13
2022-10-19T15:00:03.109Z,6.60
2022-10-19T15:04:47.105Z,7.15
2022-10-19T15:09:47.755Z,7.75
2022-10-19T15:14:33.561Z,7.88
2022-10-19T15:19:20.227Z,7.18
2022-10-19T15:24:20.913Z,6.68
2022-10-19T15:29:20.903Z,7.40
2022-10-19T15:34:05.532Z,9.23
2022-10-19T15:38:50.875Z,8.20
2022-10-19T15:43:53.048Z,7.00
2022-10-19T15:48:51.215Z,7.20
2022-10-19T15:53:37.352Z,7.88
2022-10-19T15:58:21.746Z,6.80
2022-10-19T16:03:05.717Z,7.85
2022-10-19T16:07:51.268Z,8.20
2022-10-19T16:12:35.339Z,8.45
2022-10-19T16:17:20.659Z,8.07
2022-10-19T16:22:04.810Z,8.50
2022-10-19T16:26:49.792Z,8.65
2022-10-19T16:31:33.243Z,8.23
2022-10-19T16:36:19.118Z,8.90
2022-10-19T16:41:03.723Z,9.23
2022-10-19T16:45:48.964Z,9.63
2022-10-19T16:50:32.981Z,8.83
2022-10-19T16:55:17.180Z,8.37
2022-10-19T17:00:01.907Z,9.33
2022-10-19T17:04:47.057Z,9.17
2022-10-19T17:09:41.272Z,9.13
2022-10-19T17:14:26.580Z,9.60
2022-10-19T17:19:12.166Z,9.70
2022-10-19T17:23:59.451Z,9.97
2022-10-19T17:28:45.688Z,9.37
2022-10-19T17:33:30.472Z,9.50
2022-10-19T17:38:18.229Z,9.27
2022-10-19T17:43:05.931Z,9.20
2022-10-19T17:47:51.257Z,9.80
2022-10-19T17:52:36.352Z,9.13
2022-10-19T17:57:22.913Z,9.40
2022-10-19T18:02:11.587Z,9.30
2022-10-19T18:06:56.962Z,9.93
2022-10-19T18:11:43.428Z,10.00
2022-10-19T18:16:30.101Z,9.83
2022-10-19T18:21:21.718Z,11.57
2022-10-19T18:26:08.556Z,8.90
2022-10-19T18:30:54.195Z,9.00
2022-10-19T18:35:40.589Z,9.37
2022-10-19T18:40:26.853Z,9.20
2022-10-19T18:45:13.119Z,8.80
2022-10-19T18:49:58.399Z,8.67
2022-10-19T18:54:46.040Z,9.23
2022-10-19T18:59:33.780Z,9.17
2022-10-19T19:04:20.613Z,10.70
2022-10-19T19:09:10.326Z,9.93
2022-10-19T19:13:56.604Z,9.87
2022-10-19T19:18:56.865Z,13.77
2022-10-19T19:23:44.786Z,10.53
2022-10-19T19:28:35.476Z,10.63
2022-10-19T19:33:24.543Z,10.80
2022-10-19T19:38:12.003Z,10.97
2022-10-19T19:43:00.384Z,10.30
2022-10-19T19:47:44.613Z,11.03
2022-10-19T19:52:32.859Z,11.13
2022-10-19T19:57:21.724Z,11.23
2022-10-19T20:02:08.482Z,11.43
2022-10-19T20:06:53.502Z,10.67
2022-10-19T20:11:42.423Z,11.13
2022-10-19T20:16:32.700Z,10.23
2022-10-19T20:21:19.840Z,11.70
2022-10-19T20:26:05.581Z,10.87
2022-10-19T20:30:50.762Z,10.47
2022-10-19T20:35:37.955Z,10.17
2022-10-19T20:40:22.114Z,10.17
2022-10-19T20:45:08.398Z,10.20
2022-10-19T20:49:52.429Z,10.53
2022-10-19T20:54:38.148Z,12.20
2022-10-19T20:59:26.924Z,10.77
2022-10-19T21:04:13.447Z,10.23
2022-10-19T21:08:57.743Z,9.87
2022-10-19T21:13:43.198Z,8.37
2022-10-19T21:18:27.333Z,9.60
2022-10-19T21:23:11.469Z,9.50
2022-10-19T21:27:55.608Z,7.40
2022-10-19T21:32:40.903Z,10.10
2022-10-19T21:37:24.377Z,8.63
2022-10-19T21:42:07.856Z,9.07
2022-10-19T21:46:51.900Z,8.53
2022-10-19T21:51:38.649Z,7.33
2022-10-19T21:56:23.294Z,6.83
2022-10-19T22:01:07.250Z,8.30
2022-10-19T22:05:53.904Z,10.80
2022-10-19T22:10:40.720Z,11.07
2022-10-19T22:15:24.245Z,7.60
2022-10-19T22:20:09.032Z,10.07
2022-10-19T22:24:52.468Z,9.20
2022-10-19T22:29:37.317Z,9.00
2022-10-19T22:34:21.330Z,9.47
2022-10-19T22:39:05.529Z,9.73
2022-10-19T22:43:49.086Z,10.57
2022-10-19T22:48:34.026Z,9.13
2022-10-19T22:53:17.544Z,11.23
2022-10-19T22:58:01.093Z,8.80
2022-10-19T23:02:44.752Z,7.80
2022-10-19T23:07:29.708Z,8.03
2022-10-19T23:12:13.209Z,8.57
2022-10-19T23:16:56.727Z,10.10
2022-10-19T23:21:40.180Z,11.47
2022-10-19T23:26:26.114Z,9.30
2022-10-19T23:31:11.307Z,9.30
2022-10-19T23:35:54.889Z,8.87
2022-10-19T23:40:38.372Z,7.90
2022-10-19T23:45:23.218Z,7.70
2022-10-19T23:50:07.313Z,6.80
2022-10-19T23:54:50.794Z,9.53
2022-10-19T23:59:34.327Z,8.70
